Time;durP1;ratioP1;P1;durP2;ratioP2;P2;SDS_P1;SDS_P2;PMS_P1;PMS_P2;Temp;Humidity;BMP_temperature;BMP_pressure;BME280_temperature;BME280_humidity;BME280_pressure;Samples;Min_cycle;Max_cycle;Signal;HPM_P1;HPM_P2
2022/12/12 00:01:31;;;;;;;40.42;22.25;;;2.40;99.90;;;;;;5117432;28;20028;-61
2022/12/12 00:03:58;;;;;;;29.83;15.95;;;2.30;99.90;;;;;;5117506;28;20042;-61
2022/12/12 00:06:24;;;;;;;31.85;17.23;;;2.20;99.90;;;;;;5117206;28;20027;-61
2022/12/12 00:08:51;;;;;;;27.40;16.55;;;2.20;99.90;;;;;;5117245;28;20084;-61
2022/12/12 00:11:18;;;;;;;30.73;17.25;;;2.20;99.90;;;;;;5117326;28;20024;-61
2022/12/12 00:13:44;;;;;;;34.53;19.17;;;2.10;99.90;;;;;;5117169;28;20073;-61
2022/12/12 00:16:11;;;;;;;35.47;17.70;;;2.10;99.90;;;;;;5117282;28;20034;-61
2022/12/12 00:18:37;;;;;;;33.67;18.15;;;2.10;99.90;;;;;;5117050;28;20024;-61
2022/12/12 00:21:06;;;;;;;33.92;18.58;;;2.10;99.90;;;;;;5117197;28;20328;-61
2022/12/12 00:23:33;;;;;;;39.75;20.58;;;2.10;99.90;;;;;;5117137;28;20062;-61
2022/12/12 00:26:03;;;;;;;41.20;21.83;;;2.20;99.90;;;;;;5117037;28;20134;-61
2022/12/12 00:28:30;;;;;;;34.60;19.38;;;2.10;99.90;;;;;;5117021;28;20037;-61
2022/12/12 00:30:56;;;;;;;32.20;18.55;;;2.20;99.90;;;;;;5116856;28;20027;-61
2022/12/12 00:33:22;;;;;;;31.42;18.65;;;2.30;99.90;;;;;;5116895;28;20023;-61
2022/12/12 00:35:52;;;;;;;31.23;18.38;;;2.20;99.90;;;;;;5116803;28;20024;-61
2022/12/12 00:38:20;;;;;;;35.78;19.80;;;2.20;99.90;;;;;;5116887;28;20077;-61
2022/12/12 00:40:46;;;;;;;34.40;19.55;;;2.10;99.90;;;;;;5116793;28;20020;-61
2022/12/12 00:43:12;;;;;;;33.20;18.75;;;2.00;99.90;;;;;;5116655;28;20480;-61
2022/12/12 00:45:38;;;;;;;35.95;18.75;;;2.00;99.90;;;;;;5116337;28;20072;-61
2022/12/12 00:48:06;;;;;;;36.78;19.88;;;1.90;99.90;;;;;;5116888;28;20060;-61
2022/12/12 00:50:34;;;;;;;39.58;21.50;;;1.80;99.90;;;;;;5116459;28;20112;-61
2022/12/12 00:53:00;;;;;;;29.60;16.27;;;1.90;99.90;;;;;;5116524;28;20019;-61
2022/12/12 00:55:26;;;;;;;35.45;18.65;;;1.90;99.90;;;;;;5116345;28;20019;-61
2022/12/12 00:57:52;;;;;;;29.45;15.63;;;1.90;99.90;;;;;;5116452;28;20137;-61
2022/12/12 01:00:19;;;;;;;25.50;14.35;;;1.80;99.90;;;;;;5116350;28;20425;-61
2022/12/12 01:02:46;;;;;;;21.73;13.45;;;1.70;99.90;;;;;;5115955;28;20035;-61
2022/12/12 01:05:13;;;;;;;30.40;17.38;;;1.60;99.90;;;;;;5116248;28;20530;-61
2022/12/12 01:07:39;;;;;;;29.50;16.55;;;1.60;99.90;;;;;;5115972;28;20039;-61
2022/12/12 01:10:06;;;;;;;24.58;14.32;;;1.60;99.90;;;;;;5116150;28;20419;-61
2022/12/12 01:12:32;;;;;;;24.23;13.45;;;1.60;99.90;;;;;;5116044;28;20027;-61
2022/12/12 01:14:58;;;;;;;21.13;12.48;;;1.70;99.90;;;;;;5116139;28;20027;-61
2022/12/12 01:17:25;;;;;;;27.08;14.95;;;1.70;99.90;;;;;;5116004;28;20035;-61
2022/12/12 01:19:51;;;;;;;21.70;12.32;;;1.60;99.90;;;;;;5115892;28;20405;-61
2022/12/12 01:22:17;;;;;;;19.60;11.85;;;1.50;99.90;;;;;;5115998;28;20036;-61
2022/12/12 01:24:42;;;;;;;19.95;11.57;;;1.50;99.90;;;;;;5115859;28;20160;-61
2022/12/12 01:27:08;;;;;;;18.10;11.27;;;1.50;99.90;;;;;;5115842;28;20057;-61
2022/12/12 01:29:35;;;;;;;20.88;10.80;;;1.30;99.90;;;;;;5115932;28;20032;-61
2022/12/12 01:32:01;;;;;;;17.00;9.90;;;1.30;99.90;;;;;;5115632;28;20106;-61
2022/12/12 01:34:27;;;;;;;16.73;10.15;;;1.30;99.90;;;;;;5115803;28;20149;-61
2022/12/12 01:36:53;;;;;;;20.85;10.93;;;1.30;99.90;;;;;;5115699;28;20480;-61
2022/12/12 01:39:19;;;;;;;17.63;11.15;;;1.20;99.90;;;;;;5115672;28;20040;-61
2022/12/12 01:41:45;;;;;;;15.73;9.43;;;1.30;99.90;;;;;;5115724;28;20055;-61
2022/12/12 01:44:38;;;;;;;17.80;9.90;;;1.30;99.90;;;;;;5115663;28;20028;-61
2022/12/12 01:47:04;;;;;;;20.25;11.52;;;1.40;99.90;;;;;;5115459;28;20032;-61
2022/12/12 01:49:32;;;;;;;18.35;10.95;;;1.40;99.90;;;;;;5115510;28;20111;-61
2022/12/12 01:52:03;;;;;;;20.60;11.32;;;1.50;99.90;;;;;;5115387;28;20020;-61
2022/12/12 01:54:38;;;;;;;15.25;9.65;;;1.50;99.90;;;;;;5115342;28;20034;-61
2022/12/12 01:57:16;;;;;;;22.58;12.30;;;1.40;99.90;;;;;;5115349;28;20040;-61
2022/12/12 01:59:44;;;;;;;20.77;11.02;;;1.50;99.90;;;;;;5114887;28;20027;-61
2022/12/12 02:02:09;;;;;;;23.55;12.73;;;1.30;99.90;;;;;;5115344;28;20479;-61
2022/12/12 02:04:36;;;;;;;24.80;13.40;;;1.40;99.90;;;;;;5115523;28;20110;-61
2022/12/12 02:07:02;;;;;;;22.48;13.00;;;1.40;99.90;;;;;;5114932;28;20039;-61
2022/12/12 02:09:29;;;;;;;26.17;13.25;;;1.30;99.90;;;;;;5115083;28;20507;-61
2022/12/12 02:11:57;;;;;;;23.23;12.10;;;1.20;99.90;;;;;;5115226;28;20096;-61
2022/12/12 02:14:45;;;;;;;24.63;13.23;;;1.20;99.90;;;;;;5115111;28;20042;-61
2022/12/12 02:17:19;;;;;;;21.13;13.07;;;1.20;99.90;;;;;;5115048;28;20020;-61
2022/12/12 02:20:04;;;;;;;22.25;13.13;;;1.20;99.90;;;;;;5115062;28;20572;-61
2022/12/12 02:22:50;;;;;;;21.85;12.07;;;1.20;99.90;;;;;;5114962;28;20028;-61
2022/12/12 02:25:31;;;;;;;28.52;14.95;;;1.30;99.90;;;;;;5063514;28;20126;-61
2022/12/12 02:28:03;;;;;;;27.50;15.35;;;1.30;99.90;;;;;;5115344;28;20028;-61
2022/12/12 02:30:55;;;;;;;29.88;16.45;;;1.40;99.90;;;;;;5096667;28;20036;-61
2022/12/12 02:33:40;;;;;;;22.58;13.65;;;1.40;99.90;;;;;;5114972;28;20484;-61
2022/12/12 02:36:30;;;;;;;26.40;14.02;;;1.20;99.90;;;;;;5114884;28;20028;-61
2022/12/12 02:39:29;;;;;;;21.50;12.93;;;1.20;99.90;;;;;;5114953;28;20031;-61
2022/12/12 02:42:26;;;;;;;23.33;13.25;;;1.20;99.90;;;;;;5114136;28;20554;-61
2022/12/12 02:44:56;;;;;;;20.73;12.75;;;1.20;99.90;;;;;;5079921;28;20035;-61
2022/12/12 02:47:26;;;;;;;21.17;12.60;;;1.20;99.90;;;;;;5114849;28;20050;-61
2022/12/12 02:50:03;;;;;;;20.20;12.98;;;1.10;99.90;;;;;;5114700;28;20048;-61
2022/12/12 02:52:30;;;;;;;20.00;12.15;;;1.30;99.90;;;;;;5114783;28;20515;-62
2022/12/12 02:54:56;;;;;;;19.75;12.48;;;1.30;99.90;;;;;;5114882;28;20465;-61
2022/12/12 02:57:25;;;;;;;27.02;15.07;;;1.30;99.90;;;;;;5114912;28;20084;-61
2022/12/12 02:59:59;;;;;;;26.83;16.23;;;1.40;99.90;;;;;;5114941;28;20043;-61
2022/12/12 03:02:38;;;;;;;27.75;15.77;;;1.40;99.90;;;;;;5114249;28;20020;-61
2022/12/12 03:08:00;;;;;;;26.15;15.45;;;1.30;99.90;;;;;;5114645;28;20481;-61
2022/12/12 03:10:34;;;;;;;26.05;15.73;;;1.30;99.90;;;;;;5117591;28;20107;-62
2022/12/12 03:13:18;;;;;;;26.90;14.90;;;1.30;99.90;;;;;;5118551;28;20376;-62
2022/12/12 03:15:59;;;;;;;28.90;15.25;;;1.30;99.90;;;;;;5118427;28;20085;-61
2022/12/12 03:18:30;;;;;;;25.70;14.57;;;1.40;99.90;;;;;;5118397;28;20019;-61
2022/12/12 03:21:04;;;;;;;22.85;13.32;;;1.50;99.90;;;;;;5100057;28;20040;-62
2022/12/12 03:23:39;;;;;;;22.77;14.23;;;1.50;99.90;;;;;;5118220;28;20027;-61
2022/12/12 03:26:18;;;;;;;32.38;16.60;;;1.40;99.90;;;;;;5118148;28;20051;-61
2022/12/12 03:28:54;;;;;;;28.75;14.98;;;1.40;99.90;;;;;;5118170;28;20097;-61
2022/12/12 03:31:25;;;;;;;23.42;14.00;;;1.50;99.90;;;;;;5118070;28;20024;-61
2022/12/12 03:34:12;;;;;;;25.08;15.18;;;1.40;99.90;;;;;;5118151;28;20488;-61
2022/12/12 03:37:01;;;;;;;27.38;15.35;;;1.30;99.90;;;;;;5099805;28;20036;-61
2022/12/12 03:39:42;;;;;;;27.17;15.43;;;1.30;99.90;;;;;;5118112;28;20027;-62
2022/12/12 03:42:21;;;;;;;25.63;15.20;;;1.20;99.90;;;;;;5118048;28;20051;-61
2022/12/12 03:44:54;;;;;;;23.80;14.82;;;1.30;99.90;;;;;;5117990;28;20098;-61
2022/12/12 03:47:48;;;;;;;25.58;15.32;;;1.30;99.90;;;;;;5117898;28;20039;-61
2022/12/12 03:50:21;;;;;;;21.40;13.57;;;1.40;99.90;;;;;;5117676;28;20447;-61
2022/12/12 03:53:02;;;;;;;25.05;14.10;;;1.30;99.90;;;;;;5117730;28;20019;-61
2022/12/12 03:55:59;;;;;;;20.40;13.57;;;1.40;99.90;;;;;;5117676;28;20055;-61
2022/12/12 03:59:08;;;;;;;22.33;12.98;;;1.40;99.90;;;;;;5117616;28;20112;-61
2022/12/12 04:02:10;;;;;;;24.88;14.30;;;1.40;99.90;;;;;;5075344;28;20158;-61
2022/12/12 04:04:39;;;;;;;21.40;12.05;;;1.40;99.90;;;;;;5117399;28;20454;-61
2022/12/12 04:07:22;;;;;;;21.52;13.65;;;1.40;99.90;;;;;;5117352;28;20508;-62
2022/12/12 04:12:58;;;;;;;25.83;14.43;;;1.30;99.90;;;;;;5117431;28;20102;-61
2022/12/12 04:15:39;;;;;;;24.55;13.45;;;1.30;99.90;;;;;;5117246;28;20107;-62
2022/12/12 04:18:15;;;;;;;21.15;13.40;;;1.30;99.90;;;;;;5117118;28;20488;-61
2022/12/12 04:23:53;;;;;;;25.60;14.30;;;1.40;99.90;;;;;;5117263;28;20482;-61
2022/12/12 04:26:38;;;;;;;27.70;15.52;;;1.30;99.90;;;;;;5116988;28;20034;-61
2022/12/12 04:29:26;;;;;;;25.63;14.55;;;1.40;99.90;;;;;;5116980;28;20034;-61
2022/12/12 04:32:12;;;;;;;23.35;13.90;;;1.40;99.90;;;;;;5116972;28;20286;-61
2022/12/12 04:35:04;;;;;;;27.52;15.23;;;1.40;99.90;;;;;;5116823;28;20027;-61
2022/12/12 04:37:45;;;;;;;23.73;14.80;;;1.40;99.90;;;;;;5116853;28;20035;-61
2022/12/12 04:40:13;;;;;;;;;;;1.30;99.90;;;;;;5117178;28;20080;-61
2022/12/12 04:42:46;;;;;;;29.52;14.38;;;1.30;99.90;;;;;;5116832;28;20011;-62
2022/12/12 04:45:23;;;;;;;25.45;13.50;;;1.20;99.90;;;;;;5116459;28;20028;-61
2022/12/12 04:47:52;;;;;;;23.63;13.32;;;1.30;99.90;;;;;;5116608;28;20484;-61
2022/12/12 04:50:22;;;;;;;26.15;14.32;;;1.20;99.90;;;;;;5116428;28;20026;-61
2022/12/12 04:52:52;;;;;;;16.35;11.20;;;1.10;99.90;;;;;;5116472;28;20027;-61
2022/12/12 04:55:23;;;;;;;27.85;14.32;;;1.10;99.90;;;;;;5116523;28;20016;-61
2022/12/12 04:57:53;;;;;;;26.67;15.13;;;1.00;99.90;;;;;;5116298;28;20444;-61
2022/12/12 05:00:20;;;;;;;43.05;24.25;;;1.00;99.90;;;;;;5116288;28;20028;-62
2022/12/12 05:03:10;;;;;;;29.13;17.17;;;1.00;99.90;;;;;;5116351;28;20016;-61
2022/12/12 05:05:46;;;;;;;26.20;15.95;;;0.90;99.90;;;;;;5116195;28;20073;-61
2022/12/12 05:08:19;;;;;;;25.52;13.82;;;0.90;99.90;;;;;;5116170;28;20101;-61
2022/12/12 05:10:49;;;;;;;22.38;13.50;;;0.90;99.90;;;;;;5116090;28;20408;-61
2022/12/12 05:13:21;;;;;;;25.17;14.18;;;0.80;99.90;;;;;;5116152;28;20035;-62
2022/12/12 05:15:51;;;;;;;27.27;15.15;;;0.80;99.90;;;;;;5115982;28;20030;-62
2022/12/12 05:18:18;;;;;;;32.42;18.65;;;0.80;99.90;;;;;;5116018;28;20045;-62
2022/12/12 05:20:43;;;;;;;35.50;25.10;;;0.90;99.90;;;;;;5115687;28;20051;-61
2022/12/12 05:23:09;;;;;;;37.15;25.15;;;0.90;99.90;;;;;;5116034;28;20024;-62
2022/12/12 05:25:35;;;;;;;31.15;18.15;;;1.00;99.90;;;;;;5115866;28;20023;-61
2022/12/12 05:28:01;;;;;;;27.73;17.55;;;1.00;99.90;;;;;;5115746;28;20089;-62
2022/12/12 05:30:27;;;;;;;33.90;19.63;;;1.00;99.90;;;;;;5115919;28;20081;-61
2022/12/12 05:32:53;;;;;;;46.10;28.65;;;1.10;99.90;;;;;;5114872;28;20439;-61
2022/12/12 05:35:19;;;;;;;139.63;97.85;;;1.10;99.90;;;;;;5115691;28;20031;-62
2022/12/12 05:37:45;;;;;;;192.68;124.75;;;1.10;99.90;;;;;;5115752;28;20024;-61
2022/12/12 05:40:12;;;;;;;56.55;35.55;;;1.10;99.90;;;;;;5115647;28;20027;-61
2022/12/12 05:42:39;;;;;;;84.13;55.30;;;1.20;99.90;;;;;;5115527;28;20160;-62
2022/12/12 05:45:07;;;;;;;159.45;106.50;;;1.30;99.90;;;;;;5115306;28;20127;-61
2022/12/12 05:47:33;;;;;;;292.23;203.50;;;1.10;99.90;;;;;;5115279;28;20028;-61
2022/12/12 05:50:00;;;;;;;104.20;69.03;;;1.00;99.90;;;;;;5115182;28;20027;-62
2022/12/12 05:52:26;;;;;;;72.50;52.45;;;1.10;99.90;;;;;;5115437;28;20023;-61
2022/12/12 05:54:52;;;;;;;112.03;89.72;;;0.90;99.90;;;;;;5115297;28;20031;-61
2022/12/12 05:57:18;;;;;;;57.28;33.78;;;0.90;99.90;;;;;;5115217;28;20299;-62
2022/12/12 05:59:45;;;;;;;70.18;53.42;;;0.80;99.90;;;;;;5097053;28;20026;-61
2022/12/12 06:02:12;;;;;;;41.90;26.65;;;1.00;99.90;;;;;;5115138;28;20031;-62
2022/12/12 06:04:38;;;;;;;25.05;15.25;;;1.10;99.90;;;;;;5115291;28;20104;-62
2022/12/12 06:07:04;;;;;;;28.63;16.52;;;1.20;99.90;;;;;;5115033;28;20023;-62
2022/12/12 06:09:30;;;;;;;30.17;17.15;;;1.10;99.90;;;;;;5114977;28;20031;-61
2022/12/12 06:11:57;;;;;;;32.22;17.25;;;1.10;99.90;;;;;;5115051;28;20024;-61
2022/12/12 06:14:24;;;;;;;27.05;15.43;;;1.20;99.90;;;;;;5115192;28;20027;-62
2022/12/12 06:16:49;;;;;;;32.10;17.50;;;1.10;99.90;;;;;;5114510;28;20477;-61
2022/12/12 06:19:17;;;;;;;36.05;18.83;;;1.20;99.90;;;;;;5115140;28;20046;-61
2022/12/12 06:21:43;;;;;;;33.10;19.13;;;1.20;99.90;;;;;;5115586;28;20027;-62
2022/12/12 06:24:09;;;;;;;37.15;21.13;;;1.10;99.90;;;;;;5115736;28;20031;-62
2022/12/12 06:26:35;;;;;;;41.65;23.23;;;1.10;99.90;;;;;;5114077;28;20473;-62
2022/12/12 06:29:01;;;;;;;32.50;19.52;;;1.00;99.90;;;;;;5104206;28;20118;-62
2022/12/12 06:31:28;;;;;;;42.20;23.95;;;1.20;99.90;;;;;;5113313;28;20394;-62
2022/12/12 06:33:54;;;;;;;39.28;22.88;;;1.30;99.90;;;;;;5114619;28;20023;-62
2022/12/12 06:36:25;;;;;;;41.70;24.58;;;1.10;99.90;;;;;;5111876;28;20031;-62
2022/12/12 06:38:53;;;;;;;31.48;19.10;;;1.00;99.90;;;;;;5111193;28;20042;-62
2022/12/12 06:41:20;;;;;;;38.20;19.92;;;1.10;99.90;;;;;;5113497;28;20032;-62
2022/12/12 06:43:46;;;;;;;46.28;21.77;;;1.10;99.90;;;;;;5115433;28;20027;-62
2022/12/12 06:46:15;;;;;;;48.20;22.83;;;0.90;99.90;;;;;;5119410;28;20055;-62
2022/12/12 06:48:42;;;;;;;42.38;19.20;;;1.10;99.90;;;;;;5115432;28;20012;-62
2022/12/12 06:51:09;;;;;;;34.90;18.10;;;1.20;99.90;;;;;;5114880;28;20374;-62
2022/12/12 06:53:36;;;;;;;39.13;20.48;;;1.10;99.90;;;;;;5115519;28;20100;-62
2022/12/12 06:56:11;;;;;;;42.85;22.13;;;1.10;99.90;;;;;;5115360;28;20062;-63
2022/12/12 06:58:37;;;;;;;51.50;27.38;;;1.20;99.90;;;;;;5109159;28;20412;-62
2022/12/12 07:01:05;;;;;;;34.42;18.30;;;1.20;99.90;;;;;;5110867;28;20040;-62
2022/12/12 07:03:30;;;;;;;29.75;14.88;;;1.20;99.90;;;;;;5112382;28;20389;-62
2022/12/12 07:05:56;;;;;;;33.15;16.60;;;1.30;99.90;;;;;;5114416;28;20127;-62
2022/12/12 07:08:22;;;;;;;37.10;17.92;;;1.20;99.90;;;;;;5114102;28;20380;-61
2022/12/12 07:10:49;;;;;;;32.33;17.60;;;1.30;99.90;;;;;;5112305;27;20016;-62
2022/12/12 07:13:15;;;;;;;28.35;16.40;;;1.20;99.90;;;;;;5118337;28;20393;-62
2022/12/12 07:15:45;;;;;;;37.65;17.70;;;1.20;99.90;;;;;;5117874;28;20019;-63
2022/12/12 07:18:12;;;;;;;32.30;16.50;;;1.20;99.90;;;;;;5117120;27;20035;-63
2022/12/12 07:20:39;;;;;;;30.40;15.18;;;1.20;99.90;;;;;;5111557;28;20056;-62
2022/12/12 07:23:06;;;;;;;32.65;17.83;;;1.10;99.90;;;;;;5115129;27;20542;-63
2022/12/12 07:25:32;;;;;;;37.60;20.30;;;1.20;99.90;;;;;;5116201;27;20015;-63
2022/12/12 07:27:58;;;;;;;42.00;21.20;;;1.30;99.90;;;;;;5114990;27;20057;-63
2022/12/12 07:30:27;;;;;;;52.42;27.00;;;1.20;99.90;;;;;;5115380;28;20469;-62
2022/12/12 07:32:53;;;;;;;41.05;21.77;;;1.30;99.90;;;;;;5094468;28;20016;-63
2022/12/12 07:35:19;;;;;;;36.38;20.98;;;1.30;99.90;;;;;;5114648;28;20717;-63
2022/12/12 07:37:46;;;;;;;46.65;23.73;;;1.40;99.90;;;;;;5115109;28;20031;-62
2022/12/12 07:40:15;;;;;;;39.10;22.73;;;1.30;99.90;;;;;;5116907;28;20032;-62
2022/12/12 07:42:41;;;;;;;47.20;26.67;;;1.30;99.90;;;;;;5112190;28;20028;-62
2022/12/12 07:45:07;;;;;;;51.13;30.35;;;1.20;99.90;;;;;;5116137;27;20027;-62
2022/12/12 07:47:33;;;;;;;58.13;28.70;;;1.40;99.90;;;;;;5114946;28;20046;-62
2022/12/12 07:49:59;;;;;;;41.15;20.60;;;1.50;99.90;;;;;;5110623;28;20023;-62
2022/12/12 07:52:25;;;;;;;35.33;16.45;;;1.40;99.90;;;;;;5115808;28;20448;-63
2022/12/12 07:54:51;;;;;;;35.25;18.50;;;1.40;99.90;;;;;;5106157;28;20024;-62
2022/12/12 07:57:17;;;;;;;32.10;15.50;;;1.30;99.90;;;;;;5115844;28;20385;-63
2022/12/12 07:59:43;;;;;;;35.50;16.25;;;1.30;99.90;;;;;;5110731;28;20362;-62
2022/12/12 08:02:10;;;;;;;28.08;15.82;;;1.30;99.90;;;;;;5116551;28;20469;-63
2022/12/12 08:04:36;;;;;;;73.30;31.27;;;1.40;99.90;;;;;;5110545;28;20469;-62
2022/12/12 08:07:02;;;;;;;73.80;28.77;;;1.50;99.90;;;;;;5115263;28;20083;-62
2022/12/12 08:09:28;;;;;;;58.78;24.58;;;1.50;99.90;;;;;;5111768;28;20074;-63
2022/12/12 08:11:57;;;;;;;46.00;21.10;;;1.50;99.90;;;;;;5116118;28;20019;-62
2022/12/12 08:14:24;;;;;;;38.90;19.38;;;1.50;99.90;;;;;;5104859;28;20020;-62
2022/12/12 08:16:50;;;;;;;43.65;21.05;;;1.60;99.90;;;;;;5114588;28;20035;-62
2022/12/12 08:19:16;;;;;;;57.22;27.42;;;1.50;99.90;;;;;;5117105;28;20050;-62
2022/12/12 08:21:43;;;;;;;49.90;27.98;;;1.60;99.90;;;;;;5117353;28;20023;-62
2022/12/12 08:24:12;;;;;;;69.53;31.77;;;1.60;99.90;;;;;;5117481;28;20076;-62
2022/12/12 08:26:40;;;;;;;51.45;24.65;;;1.50;99.90;;;;;;5117596;28;20134;-62
2022/12/12 08:29:06;;;;;;;68.55;26.13;;;1.50;99.90;;;;;;5116475;28;20070;-62
2022/12/12 08:31:32;;;;;;;31.20;16.88;;;1.70;99.90;;;;;;5109512;27;20016;-62
2022/12/12 08:34:00;;;;;;;27.25;15.68;;;1.60;99.90;;;;;;5112834;28;20032;-62
2022/12/12 08:36:30;;;;;;;23.73;14.73;;;1.50;99.90;;;;;;5132147;27;20127;-73
2022/12/12 08:38:57;;;;;;;30.35;15.82;;;1.50;99.90;;;;;;5119138;27;20027;-73
2022/12/12 08:41:24;;;;;;;31.83;17.67;;;1.50;99.90;;;;;;5116281;28;20053;-73
2022/12/12 08:43:50;;;;;;;34.67;18.33;;;1.50;99.90;;;;;;5114793;28;20028;-73
2022/12/12 08:46:20;;;;;;;30.80;16.27;;;1.60;99.90;;;;;;5116496;28;20023;-73
2022/12/12 08:48:46;;;;;;;25.08;16.08;;;1.60;99.90;;;;;;5112887;28;20055;-73
2022/12/12 08:51:17;;;;;;;24.42;15.23;;;1.80;99.90;;;;;;5115896;28;20024;-73
2022/12/12 08:53:45;;;;;;;23.23;14.23;;;1.80;99.90;;;;;;5111294;28;20092;-73
2022/12/12 08:56:11;;;;;;;26.58;15.27;;;2.00;99.90;;;;;;5116234;28;20093;-73
2022/12/12 08:58:37;;;;;;;35.67;17.02;;;2.00;99.90;;;;;;5113458;28;20019;-73
2022/12/12 09:01:09;;;;;;;30.80;17.27;;;2.00;99.90;;;;;;5115349;28;20020;-72
2022/12/12 09:03:35;;;;;;;33.28;17.90;;;2.00;99.90;;;;;;5103374;28;20055;-72
2022/12/12 09:06:01;;;;;;;30.95;17.15;;;2.00;99.90;;;;;;5114961;28;20024;-72
2022/12/12 09:08:27;;;;;;;26.25;15.05;;;2.00;99.90;;;;;;5115617;28;20047;-73
2022/12/12 09:10:53;;;;;;;33.22;17.02;;;2.00;99.90;;;;;;5113250;27;20024;-73
2022/12/12 09:13:19;;;;;;;27.55;16.30;;;2.10;99.90;;;;;;5115672;28;20030;-73
2022/12/12 09:15:49;;;;;;;28.42;16.60;;;1.90;99.90;;;;;;5113444;28;20043;-72
2022/12/12 09:18:18;;;;;;;32.13;17.83;;;2.00;99.90;;;;;;5114092;28;20035;-72
2022/12/12 09:20:56;;;;;;;33.83;19.75;;;1.80;99.90;;;;;;5110529;28;20070;-73
2022/12/12 09:23:23;;;;;;;30.90;16.48;;;1.90;99.90;;;;;;5114257;28;20491;-74
2022/12/12 09:25:49;;;;;;;31.40;16.67;;;2.00;99.90;;;;;;5115277;28;20036;-72
2022/12/12 09:28:19;;;;;;;36.40;20.95;;;1.90;99.90;;;;;;5115387;28;20036;-73
2022/12/12 09:30:46;;;;;;;36.00;20.45;;;1.90;99.90;;;;;;5110835;28;20076;-73
2022/12/12 09:33:12;;;;;;;36.15;21.33;;;2.00;99.90;;;;;;5114349;28;20408;-73
2022/12/12 09:35:38;;;;;;;35.88;20.02;;;1.90;99.90;;;;;;5113835;28;20524;-73
2022/12/12 09:38:05;;;;;;;38.35;21.75;;;2.10;99.90;;;;;;5114760;28;20110;-73
2022/12/12 09:40:50;;;;;;;39.20;21.75;;;1.90;99.90;;;;;;5114771;28;20035;-73
2022/12/12 09:43:19;;;;;;;38.42;19.70;;;1.90;99.90;;;;;;5115019;28;20102;-72
2022/12/12 09:45:46;;;;;;;43.83;21.92;;;1.90;99.90;;;;;;5114320;28;20504;-72
2022/12/12 09:48:43;;;;;;;48.55;25.08;;;1.80;99.90;;;;;;5113934;28;20024;-73
2022/12/12 09:51:12;;;;;;;42.97;23.60;;;1.70;99.90;;;;;;5112264;27;20019;-73
2022/12/12 09:53:42;;;;;;;43.33;22.38;;;1.80;99.90;;;;;;5107627;28;20028;-74
2022/12/12 09:56:19;;;;;;;43.85;23.65;;;1.70;99.90;;;;;;5111443;28;20041;-74
2022/12/12 09:58:49;;;;;;;46.70;23.00;;;1.70;99.90;;;;;;5114392;28;20104;-74
2022/12/12 10:01:22;;;;;;;66.97;33.47;;;1.90;99.90;;;;;;5112875;28;20054;-72
2022/12/12 10:04:07;;;;;;;51.20;28.50;;;2.00;99.90;;;;;;5109755;27;20030;-71
2022/12/12 10:06:56;;;;;;;44.65;22.98;;;2.00;99.90;;;;;;5112387;28;20404;-72
2022/12/12 10:09:33;;;;;;;37.95;20.85;;;2.00;99.90;;;;;;5112513;28;20088;-72
2022/12/12 10:12:01;;;;;;;43.22;24.48;;;2.10;99.90;;;;;;5112282;28;20027;-73
2022/12/12 10:14:33;;;;;;;39.35;21.67;;;2.00;99.90;;;;;;5114586;28;20031;-72
2022/12/12 10:17:01;;;;;;;37.83;19.98;;;2.10;99.90;;;;;;5096116;28;20047;-73
2022/12/12 10:19:34;;;;;;;31.73;18.40;;;2.10;99.90;;;;;;5113358;28;20105;-72
2022/12/12 10:22:05;;;;;;;40.85;22.77;;;2.20;99.90;;;;;;5113181;28;20046;-72
2022/12/12 10:25:06;;;;;;;35.67;20.02;;;2.20;99.90;;;;;;5113908;28;20102;-72
2022/12/12 10:27:32;;;;;;;31.50;18.63;;;2.30;99.90;;;;;;5114573;28;20035;-73
2022/12/12 10:30:05;;;;;;;34.28;20.00;;;2.30;99.90;;;;;;5115471;28;20028;-72
2022/12/12 10:33:09;;;;;;;31.10;17.63;;;2.30;99.90;;;;;;5115342;28;20024;-72
2022/12/12 10:36:05;;;;;;;40.33;20.42;;;2.30;99.90;;;;;;5114354;28;20016;-72
2022/12/12 10:38:46;;;;;;;37.85;19.65;;;2.30;99.90;;;;;;5111988;28;20022;-72
2022/12/12 10:41:31;;;;;;;33.97;19.17;;;2.20;99.90;;;;;;5113837;28;20048;-73
2022/12/12 10:44:11;;;;;;;39.13;21.23;;;2.10;99.90;;;;;;5114515;28;20069;-73
2022/12/12 10:46:55;;;;;;;39.67;22.90;;;2.10;99.90;;;;;;5110074;28;20473;-73
2022/12/12 10:49:23;;;;;;;36.35;20.52;;;2.10;99.90;;;;;;5112769;28;20377;-72
2022/12/12 10:51:50;;;;;;;42.50;22.70;;;2.10;99.90;;;;;;5113350;28;20028;-73
2022/12/12 10:54:19;;;;;;;38.47;21.15;;;2.20;99.90;;;;;;5112022;28;20025;-72
2022/12/12 10:57:09;;;;;;;37.28;20.63;;;2.20;99.90;;;;;;5112742;28;20059;-72
2022/12/12 10:59:40;;;;;;;37.80;20.65;;;2.10;99.90;;;;;;5108869;28;20366;-72
2022/12/12 11:02:25;;;;;;;41.25;20.83;;;2.10;99.90;;;;;;5109350;28;20032;-73
2022/12/12 11:05:07;;;;;;;36.15;19.95;;;2.20;99.90;;;;;;5111185;28;20023;-73
2022/12/12 11:07:39;;;;;;;36.97;20.45;;;2.30;99.90;;;;;;5108099;28;20399;-73
2022/12/12 11:10:20;;;;;;;37.15;20.08;;;2.30;99.90;;;;;;5108056;28;20033;-73
2022/12/12 11:13:17;;;;;;;36.00;19.70;;;2.40;99.90;;;;;;5108962;28;20024;-73
2022/12/12 11:15:55;;;;;;;39.00;21.77;;;2.40;99.90;;;;;;5101442;28;20040;-73
2022/12/12 11:18:23;;;;;;;44.13;21.60;;;2.40;99.90;;;;;;5111561;28;20057;-73
2022/12/12 11:20:51;;;;;;;39.50;20.20;;;2.40;99.90;;;;;;5112464;28;20044;-73
2022/12/12 11:23:23;;;;;;;40.17;19.95;;;2.40;99.90;;;;;;5111167;28;20106;-73
2022/12/12 11:26:02;;;;;;;35.50;19.67;;;2.50;99.90;;;;;;5112606;28;20059;-73
2022/12/12 11:28:36;;;;;;;37.78;20.58;;;2.10;99.90;;;;;;5109768;28;20024;-73
2022/12/12 11:31:10;;;;;;;35.58;19.17;;;2.10;99.90;;;;;;5112602;28;20119;-73
2022/12/12 11:33:47;;;;;;;36.38;19.52;;;2.30;99.90;;;;;;5110433;28;20032;-73
2022/12/12 11:36:15;;;;;;;39.83;21.95;;;2.20;99.90;;;;;;5111839;28;20028;-73
2022/12/12 11:38:51;;;;;;;38.92;22.52;;;2.20;99.90;;;;;;5111889;28;20024;-76
2022/12/12 11:41:17;;;;;;;45.30;24.85;;;2.10;99.90;;;;;;5112615;27;20060;-73
2022/12/12 11:43:56;;;;;;;43.83;23.00;;;2.30;99.90;;;;;;5113741;28;20073;-73
2022/12/12 11:46:25;;;;;;;41.75;23.30;;;2.40;99.90;;;;;;5115230;28;20063;-73
2022/12/12 11:48:51;;;;;;;40.20;22.85;;;2.40;99.90;;;;;;5114132;28;20019;-73
2022/12/12 11:51:38;;;;;;;48.80;24.60;;;2.40;99.90;;;;;;5117280;28;20026;-73
2022/12/12 11:54:13;;;;;;;48.50;24.52;;;2.40;99.90;;;;;;5115857;28;20081;-72
2022/12/12 11:56:54;;;;;;;48.58;22.67;;;2.50;99.90;;;;;;5115368;27;20377;-73
2022/12/12 11:59:20;;;;;;;41.53;22.15;;;2.50;99.90;;;;;;5112764;28;20484;-73
2022/12/12 12:01:54;;;;;;;42.55;22.00;;;2.50;99.90;;;;;;5115755;28;20081;-73
2022/12/12 12:04:38;;;;;;;45.60;24.23;;;2.40;99.90;;;;;;5112208;28;20020;-74
2022/12/12 12:07:34;;;;;;;49.25;24.00;;;2.30;99.90;;;;;;5117918;28;20045;-73
2022/12/12 12:10:11;;;;;;;45.28;23.60;;;2.40;99.90;;;;;;5116521;28;20110;-74
2022/12/12 12:13:04;;;;;;;47.67;23.70;;;2.50;99.90;;;;;;5111718;28;20019;-73
2022/12/12 12:15:36;;;;;;;54.03;24.80;;;2.20;99.90;;;;;;5116456;28;20114;-72
2022/12/12 12:18:19;;;;;;;50.20;23.88;;;2.30;99.90;;;;;;5115490;28;20057;-73
2022/12/12 12:21:00;;;;;;;72.35;26.83;;;2.40;99.90;;;;;;5114572;27;20051;-71
2022/12/12 12:23:50;;;;;;;;;;;2.40;99.90;;;;;;5107756;28;20024;-73
2022/12/12 12:26:44;;;;;;;50.40;24.33;;;2.40;99.90;;;;;;5111937;28;20454;-73
2022/12/12 12:29:22;;;;;;;71.25;27.27;;;2.30;99.90;;;;;;5104839;28;20035;-73
2022/12/12 12:32:07;;;;;;;54.65;25.52;;;2.40;99.90;;;;;;5115774;28;20020;-73
2022/12/12 12:34:53;;;;;;;48.08;23.50;;;2.60;99.90;;;;;;5114197;27;20354;-73
2022/12/12 12:38:10;;;;;;;63.05;26.45;;;2.70;99.90;;;;;;5115805;28;20028;-73
2022/12/12 12:40:44;;;;;;;60.35;27.00;;;2.40;99.90;;;;;;5053568;28;20036;-74
2022/12/12 12:43:36;;;;;;;50.00;25.60;;;2.50;99.90;;;;;;5053174;28;20116;-73
2022/12/12 12:46:13;;;;;;;55.60;26.35;;;2.10;99.90;;;;;;5049617;28;20431;-73
2022/12/12 12:48:48;;;;;;;60.75;26.90;;;2.40;99.90;;;;;;5052811;28;20552;-75
2022/12/12 12:51:52;;;;;;;70.43;27.80;;;2.50;99.90;;;;;;5052415;28;20028;-72
2022/12/12 12:54:47;;;;;;;82.15;28.02;;;2.70;99.90;;;;;;5052821;28;20037;-74
2022/12/12 12:57:21;;;;;;;76.35;30.17;;;2.70;99.90;;;;;;5053793;28;20450;-73
2022/12/12 12:59:51;;;;;;;69.70;27.75;;;2.70;99.90;;;;;;5051605;28;20040;-74
2022/12/12 13:02:36;;;;;;;73.30;27.50;;;2.80;99.90;;;;;;5036694;28;20075;-73
2022/12/12 13:05:13;;;;;;;79.50;29.85;;;2.80;99.90;;;;;;5046842;28;20043;-72
2022/12/12 13:07:53;;;;;;;62.00;26.90;;;2.60;99.40;;;;;;5052132;28;20051;-72
2022/12/12 13:10:30;;;;;;;72.93;29.35;;;2.50;99.90;;;;;;5053446;28;20036;-74
2022/12/12 13:13:21;;;;;;;79.60;29.85;;;2.60;99.70;;;;;;5053531;28;20020;-73
2022/12/12 13:15:56;;;;;;;86.03;30.38;;;2.70;99.80;;;;;;5116350;28;20024;-72